Terminal Aerodrome Forecast
Issued by NWS Paducah, KY

Home | Current Version | Previous Version | Text Only | Print | Product List | Glossary On
Versions: 1 2 3 4 5 6 7 8 9 10 11 12
000
FTUS43 KPAH 211100
TAFPAH
TAF
KPAH 211120Z 2112/2212 VRB03KT P6SM SCT070 BKN250
     FM211500 23008KT P6SM SCT050 BKN080
     FM211800 23008KT P6SM VCSH SCT030 BKN060 PROB30 2123/2205 4SM
      -TSRA BR BKN030CB
     FM220900 29008KT P6SM BKN035=

USA.gov is the U.S. government's official web portal to all federal, state and local government web resources and services.